sensor_id;sensor_type;location;lat;lon;timestamp;pressure;altitude;pressure_sealevel;temperature;humidity
7309;BME280;3695;53.330;9.876;2023-02-11T00:01:33;105030.56;;;5.78;100.00
7309;BME280;3695;53.330;9.876;2023-02-11T00:04:01;105039.09;;;5.86;100.00
7309;BME280;3695;53.330;9.876;2023-02-11T00:06:29;105032.66;;;5.89;100.00
7309;BME280;3695;53.330;9.876;2023-02-11T00:08:56;105018.59;;;5.84;100.00
7309;BME280;3695;53.330;9.876;2023-02-11T00:11:24;105030.81;;;5.91;100.00
7309;BME280;3695;53.330;9.876;2023-02-11T00:13:54;105024.59;;;5.89;100.00
7309;BME280;3695;53.330;9.876;2023-02-11T00:16:22;105035.44;;;5.87;100.00
7309;BME280;3695;53.330;9.876;2023-02-11T00:18:49;105041.88;;;5.85;100.00
7309;BME280;3695;53.330;9.876;2023-02-11T00:21:19;105062.88;;;5.95;100.00
7309;BME280;3695;53.330;9.876;2023-02-11T00:23:46;105054.69;;;5.97;100.00
7309;BME280;3695;53.330;9.876;2023-02-11T00:26:14;105073.56;;;5.97;100.00
7309;BME280;3695;53.330;9.876;2023-02-11T00:28:41;105078.06;;;5.96;100.00
7309;BME280;3695;53.330;9.876;2023-02-11T00:31:08;105103.09;;;5.98;100.00
7309;BME280;3695;53.330;9.876;2023-02-11T00:33:36;105112.66;;;6.04;100.00
7309;BME280;3695;53.330;9.876;2023-02-11T00:36:03;105108.84;;;6.08;100.00
7309;BME280;3695;53.330;9.876;2023-02-11T00:38:29;105100.00;;;6.06;100.00
7309;BME280;3695;53.330;9.876;2023-02-11T00:40:56;105087.56;;;6.04;100.00
7309;BME280;3695;53.330;9.876;2023-02-11T00:43:22;105102.06;;;6.01;100.00
7309;BME280;3695;53.330;9.876;2023-02-11T00:45:49;105143.59;;;5.97;100.00
7309;BME280;3695;53.330;9.876;2023-02-11T00:48:15;105208.69;;;6.05;100.00
7309;BME280;3695;53.330;9.876;2023-02-11T00:50:43;105259.16;;;6.02;100.00
7309;BME280;3695;53.330;9.876;2023-02-11T00:53:09;105318.97;;;6.08;100.00
7309;BME280;3695;53.330;9.876;2023-02-11T00:55:36;105358.03;;;5.99;100.00
7309;BME280;3695;53.330;9.876;2023-02-11T00:58:02;105392.97;;;6.01;100.00
7309;BME280;3695;53.330;9.876;2023-02-11T01:00:29;105405.41;;;6.04;100.00
7309;BME280;3695;53.330;9.876;2023-02-11T01:02:55;105428.78;;;6.03;100.00
7309;BME280;3695;53.330;9.876;2023-02-11T01:05:22;105426.31;;;5.98;100.00
7309;BME280;3695;53.330;9.876;2023-02-11T01:07:49;105463.66;;;6.06;100.00
7309;BME280;3695;53.330;9.876;2023-02-11T01:10:16;105462.06;;;6.02;100.00
7309;BME280;3695;53.330;9.876;2023-02-11T01:12:43;105511.72;;;5.96;100.00
7309;BME280;3695;53.330;9.876;2023-02-11T01:15:13;105593.25;;;6.00;100.00
7309;BME280;3695;53.330;9.876;2023-02-11T01:17:40;105689.56;;;5.95;100.00
7309;BME280;3695;53.330;9.876;2023-02-11T01:20:10;105774.56;;;6.02;100.00
7309;BME280;3695;53.330;9.876;2023-02-11T01:22:38;105856.00;;;6.09;100.00
7309;BME280;3695;53.330;9.876;2023-02-11T01:25:07;105946.69;;;6.10;100.00
7309;BME280;3695;53.330;9.876;2023-02-11T01:27:33;105975.88;;;5.98;100.00
7309;BME280;3695;53.330;9.876;2023-02-11T01:30:01;106031.00;;;5.90;100.00
7309;BME280;3695;53.330;9.876;2023-02-11T01:32:27;106140.41;;;5.94;100.00
7309;BME280;3695;53.330;9.876;2023-02-11T01:34:54;106240.06;;;5.94;100.00
7309;BME280;3695;53.330;9.876;2023-02-11T01:37:20;106381.72;;;6.01;100.00
7309;BME280;3695;53.330;9.876;2023-02-11T01:39:48;106491.28;;;6.02;100.00
7309;BME280;3695;53.330;9.876;2023-02-11T01:42:17;106597.78;;;5.84;100.00
7309;BME280;3695;53.330;9.876;2023-02-11T01:44:44;106751.16;;;5.92;100.00
7309;BME280;3695;53.330;9.876;2023-02-11T01:47:11;106866.28;;;5.84;100.00
7309;BME280;3695;53.330;9.876;2023-02-11T01:49:39;107025.00;;;5.96;100.00
7309;BME280;3695;53.330;9.876;2023-02-11T01:52:10;107146.28;;;5.96;100.00
7309;BME280;3695;53.330;9.876;2023-02-11T01:54:41;107275.56;;;5.99;100.00
7309;BME280;3695;53.330;9.876;2023-02-11T01:57:30;107413.13;;;5.93;100.00
7309;BME280;3695;53.330;9.876;2023-02-11T02:00:05;107484.19;;;5.86;100.00
7309;BME280;3695;53.330;9.876;2023-02-11T02:02:35;107616.94;;;6.02;100.00
7309;BME280;3695;53.330;9.876;2023-02-11T02:05:07;107682.59;;;5.96;100.00
7309;BME280;3695;53.330;9.876;2023-02-11T02:07:40;107743.63;;;6.00;100.00
7309;BME280;3695;53.330;9.876;2023-02-11T02:10:13;107813.72;;;6.00;100.00
7309;BME280;3695;53.330;9.876;2023-02-11T02:12:42;107959.22;;;6.08;100.00
7309;BME280;3695;53.330;9.876;2023-02-11T02:15:19;108026.53;;;6.21;100.00
7309;BME280;3695;53.330;9.876;2023-02-11T02:17:54;108024.72;;;6.23;100.00
7309;BME280;3695;53.330;9.876;2023-02-11T02:20:36;108002.28;;;6.20;100.00
7309;BME280;3695;53.330;9.876;2023-02-11T02:23:31;107979.94;;;6.04;100.00
7309;BME280;3695;53.330;9.876;2023-02-11T02:26:34;108058.97;;;6.15;100.00
7309;BME280;3695;53.330;9.876;2023-02-11T02:32:42;108116.47;;;6.17;100.00
7309;BME280;3695;53.330;9.876;2023-02-11T02:35:23;108121.88;;;6.10;100.00
7309;BME280;3695;53.330;9.876;2023-02-11T02:37:56;108238.69;;;6.22;100.00
7309;BME280;3695;53.330;9.876;2023-02-11T02:40:30;108249.50;;;6.10;100.00
7309;BME280;3695;53.330;9.876;2023-02-11T02:42:59;108206.34;;;6.13;100.00
7309;BME280;3695;53.330;9.876;2023-02-11T02:45:27;108247.69;;;6.12;100.00
7309;BME280;3695;53.330;9.876;2023-02-11T02:47:55;108289.06;;;6.08;100.00
7309;BME280;3695;53.330;9.876;2023-02-11T02:50:23;108364.53;;;6.14;100.00
7309;BME280;3695;53.330;9.876;2023-02-11T02:53:02;108410.38;;;6.14;100.00
7309;BME280;3695;53.330;9.876;2023-02-11T02:55:49;108465.25;;;6.18;100.00
7309;BME280;3695;53.330;9.876;2023-02-11T02:58:40;108501.16;;;6.12;100.00
7309;BME280;3695;53.330;9.876;2023-02-11T03:01:14;108572.22;;;6.16;100.00
7309;BME280;3695;53.330;9.876;2023-02-11T03:03:47;108634.25;;;6.23;100.00
7309;BME280;3695;53.330;9.876;2023-02-11T03:06:24;108675.59;;;6.19;100.00
7309;BME280;3695;53.330;9.876;2023-02-11T03:08:56;108801.47;;;6.20;100.00
7309;BME280;3695;53.330;9.876;2023-02-11T03:11:26;108875.19;;;6.19;100.00
7309;BME280;3695;53.330;9.876;2023-02-11T03:13:55;108954.38;;;6.30;100.00
7309;BME280;3695;53.330;9.876;2023-02-11T03:16:25;108949.84;;;6.23;100.00
7309;BME280;3695;53.330;9.876;2023-02-11T03:18:57;108990.34;;;6.29;100.00
7309;BME280;3695;53.330;9.876;2023-02-11T03:21:24;108990.38;;;6.36;100.00
7309;BME280;3695;53.330;9.876;2023-02-11T03:23:53;108929.22;;;6.31;100.00
7309;BME280;3695;53.330;9.876;2023-02-11T03:26:25;108886.06;;;6.38;100.00
7309;BME280;3695;53.330;9.876;2023-02-11T03:28:57;108818.59;;;6.27;100.00
7309;BME280;3695;53.330;9.876;2023-02-11T03:31:30;108791.66;;;6.38;100.00
7309;BME280;3695;53.330;9.876;2023-02-11T03:34:05;108739.50;;;6.49;100.00
7309;BME280;3695;53.330;9.876;2023-02-11T03:36:38;108602.78;;;6.39;100.00
7309;BME280;3695;53.330;9.876;2023-02-11T03:39:11;108538.03;;;6.39;100.00
7309;BME280;3695;53.330;9.876;2023-02-11T03:41:41;108503.84;;;6.47;100.00
7309;BME280;3695;53.330;9.876;2023-02-11T03:44:10;108443.59;;;6.47;100.00
7309;BME280;3695;53.330;9.876;2023-02-11T03:46:39;108408.50;;;6.48;100.00
7309;BME280;3695;53.330;9.876;2023-02-11T03:49:12;108360.81;;;6.56;100.00
7309;BME280;3695;53.330;9.876;2023-02-11T03:51:40;108240.31;;;6.51;100.00
7309;BME280;3695;53.330;9.876;2023-02-11T03:54:09;108195.31;;;6.57;100.00
7309;BME280;3695;53.330;9.876;2023-02-11T03:56:42;108169.25;;;6.53;100.00
7309;BME280;3695;53.330;9.876;2023-02-11T03:59:11;108117.91;;;6.61;100.00
7309;BME280;3695;53.330;9.876;2023-02-11T04:01:38;108033.34;;;6.62;100.00
7309;BME280;3695;53.330;9.876;2023-02-11T04:04:05;108028.91;;;6.58;100.00
7309;BME280;3695;53.330;9.876;2023-02-11T04:06:32;108019.84;;;6.68;100.00
7309;BME280;3695;53.330;9.876;2023-02-11T04:08:59;107954.13;;;6.72;100.00
7309;BME280;3695;53.330;9.876;2023-02-11T04:11:25;107861.56;;;6.64;100.00
7309;BME280;3695;53.330;9.876;2023-02-11T04:13:52;107838.19;;;6.61;100.00
7309;BME280;3695;53.330;9.876;2023-02-11T04:16:18;107833.63;;;6.68;100.00
7309;BME280;3695;53.330;9.876;2023-02-11T04:18:45;107806.66;;;6.68;100.00
7309;BME280;3695;53.330;9.876;2023-02-11T04:21:11;107821.88;;;6.72;100.00
7309;BME280;3695;53.330;9.876;2023-02-11T04:23:39;107796.81;;;6.64;100.00
7309;BME280;3695;53.330;9.876;2023-02-11T04:26:06;107772.56;;;6.58;100.00
7309;BME280;3695;53.330;9.876;2023-02-11T04:28:32;107794.06;;;6.67;100.00
7309;BME280;3695;53.330;9.876;2023-02-11T04:31:00;107776.19;;;6.57;100.00
7309;BME280;3695;53.330;9.876;2023-02-11T04:33:26;107815.69;;;6.61;100.00
7309;BME280;3695;53.330;9.876;2023-02-11T04:35:53;107843.63;;;6.57;100.00
7309;BME280;3695;53.330;9.876;2023-02-11T04:38:19;107890.22;;;6.74;100.00
7309;BME280;3695;53.330;9.876;2023-02-11T04:40:49;107854.38;;;6.65;100.00
7309;BME280;3695;53.330;9.876;2023-02-11T04:43:16;107883.00;;;6.75;100.00
7309;BME280;3695;53.330;9.876;2023-02-11T04:45:42;107880.34;;;6.73;100.00
7309;BME280;3695;53.330;9.876;2023-02-11T04:48:09;107843.44;;;6.75;100.00
7309;BME280;3695;53.330;9.876;2023-02-11T04:50:35;107820.00;;;6.77;100.00
7309;BME280;3695;53.330;9.876;2023-02-11T04:53:02;107812.00;;;6.71;100.00
7309;BME280;3695;53.330;9.876;2023-02-11T04:55:28;107847.88;;;6.79;100.00
7309;BME280;3695;53.330;9.876;2023-02-11T04:57:56;107805.72;;;6.71;100.00
7309;BME280;3695;53.330;9.876;2023-02-11T05:00:22;107864.97;;;6.78;100.00
7309;BME280;3695;53.330;9.876;2023-02-11T05:02:49;107872.19;;;6.78;100.00
7309;BME280;3695;53.330;9.876;2023-02-11T05:05:15;107889.22;;;6.81;100.00
7309;BME280;3695;53.330;9.876;2023-02-11T05:07:41;107873.97;;;6.77;100.00
7309;BME280;3695;53.330;9.876;2023-02-11T05:10:08;107902.69;;;6.84;100.00
7309;BME280;3695;53.330;9.876;2023-02-11T05:12:35;107916.13;;;6.87;100.00
7309;BME280;3695;53.330;9.876;2023-02-11T05:15:03;107882.88;;;6.85;100.00
7309;BME280;3695;53.330;9.876;2023-02-11T05:17:29;107904.44;;;6.87;100.00
7309;BME280;3695;53.330;9.876;2023-02-11T05:19:56;107903.56;;;6.86;100.00
7309;BME280;3695;53.330;9.876;2023-02-11T05:22:22;107876.66;;;6.80;100.00
7309;BME280;3695;53.330;9.876;2023-02-11T05:24:49;107918.81;;;6.89;100.00
7309;BME280;3695;53.330;9.876;2023-02-11T05:27:15;107908.09;;;6.83;100.00
7309;BME280;3695;53.330;9.876;2023-02-11T05:29:42;107928.72;;;6.88;100.00
7309;BME280;3695;53.330;9.876;2023-02-11T05:32:10;107950.34;;;6.85;100.00
7309;BME280;3695;53.330;9.876;2023-02-11T05:34:36;108025.88;;;6.91;100.00
7309;BME280;3695;53.330;9.876;2023-02-11T05:37:02;108009.75;;;6.85;100.00
7309;BME280;3695;53.330;9.876;2023-02-11T05:39:29;108091.56;;;6.92;100.00
7309;BME280;3695;53.330;9.876;2023-02-11T05:41:55;108145.56;;;6.90;100.00
7309;BME280;3695;53.330;9.876;2023-02-11T05:44:22;108192.38;;;6.91;100.00
7309;BME280;3695;53.330;9.876;2023-02-11T05:46:48;108277.81;;;6.97;100.00
7309;BME280;3695;53.330;9.876;2023-02-11T05:49:16;108292.28;;;6.89;100.00
7309;BME280;3695;53.330;9.876;2023-02-11T05:51:43;108420.97;;;6.87;100.00
7309;BME280;3695;53.330;9.876;2023-02-11T05:54:09;108544.25;;;6.98;100.00
7309;BME280;3695;53.330;9.876;2023-02-11T05:56:36;108609.06;;;6.93;100.00
7309;BME280;3695;53.330;9.876;2023-02-11T05:59:02;108647.75;;;6.97;100.00
7309;BME280;3695;53.330;9.876;2023-02-11T06:01:29;108706.25;;;6.98;100.00
7309;BME280;3695;53.330;9.876;2023-02-11T06:03:55;108763.88;;;7.03;100.00
7309;BME280;3695;53.330;9.876;2023-02-11T06:06:23;108811.59;;;6.93;100.00
7309;BME280;3695;53.330;9.876;2023-02-11T06:08:50;108909.69;;;6.90;100.00
7309;BME280;3695;53.330;9.876;2023-02-11T06:11:17;109004.22;;;6.97;100.00
7309;BME280;3695;53.330;9.876;2023-02-11T06:13:44;109180.69;;;7.00;100.00
7309;BME280;3695;53.330;9.876;2023-02-11T06:16:10;109277.06;;;7.03;100.00
7309;BME280;3695;53.330;9.876;2023-02-11T06:18:37;109366.19;;;7.00;100.00
7309;BME280;3695;53.330;9.876;2023-02-11T06:21:06;109464.31;;;6.99;100.00
7309;BME280;3695;53.330;9.876;2023-02-11T06:23:34;109547.06;;;6.93;100.00
7309;BME280;3695;53.330;9.876;2023-02-11T06:26:01;109690.47;;;7.09;100.00
7309;BME280;3695;53.330;9.876;2023-02-11T06:28:28;109744.41;;;7.03;100.00
7309;BME280;3695;53.330;9.876;2023-02-11T06:30:55;109837.19;;;7.05;100.00
7309;BME280;3695;53.330;9.876;2023-02-11T06:33:22;109896.56;;;7.02;100.00
7309;BME280;3695;53.330;9.876;2023-02-11T06:35:49;109992.13;;;7.07;100.00
7309;BME280;3695;53.330;9.876;2023-02-11T06:38:15;110057.06;;;7.10;100.00
7309;BME280;3695;53.330;9.876;2023-02-11T06:40:47;110131.72;;;7.06;100.00
7309;BME280;3695;53.330;9.876;2023-02-11T06:43:13;110233.41;;;7.03;100.00
7309;BME280;3695;53.330;9.876;2023-02-11T06:45:40;110399.19;;;7.05;100.00
7309;BME280;3695;53.330;9.876;2023-02-11T06:48:06;110519.16;;;7.10;100.00
7309;BME280;3695;53.330;9.876;2023-02-11T06:50:32;110679.44;;;7.09;100.00
7309;BME280;3695;53.330;9.876;2023-02-11T06:52:59;110816.59;;;7.14;100.00
7309;BME280;3695;53.330;9.876;2023-02-11T06:55:25;110921.59;;;7.04;100.00
7309;BME280;3695;53.330;9.876;2023-02-11T06:57:53;111083.75;;;7.04;100.00
7309;BME280;3695;53.330;9.876;2023-02-11T07:00:20;111202.50;;;6.99;100.00
7309;BME280;3695;53.330;9.876;2023-02-11T07:02:46;111437.09;;;7.08;100.00
7309;BME280;3695;53.330;9.876;2023-02-11T07:05:13;111546.66;;;7.00;100.00
7309;BME280;3695;53.330;9.876;2023-02-11T07:07:39;111662.31;;;7.07;100.00
7309;BME280;3695;53.330;9.876;2023-02-11T07:10:06;111765.94;;;7.07;100.00
7309;BME280;3695;53.330;9.876;2023-02-11T07:12:33;111825.41;;;7.07;100.00
7309;BME280;3695;53.330;9.876;2023-02-11T07:15:00;111928.56;;;7.15;100.00
7309;BME280;3695;53.330;9.876;2023-02-11T07:17:27;111952.91;;;7.15;100.00
7309;BME280;3695;53.330;9.876;2023-02-11T07:19:53;111997.78;;;7.11;100.00
7309;BME280;3695;53.330;9.876;2023-02-11T07:22:20;112083.63;;;7.15;100.00
7309;BME280;3695;53.330;9.876;2023-02-11T07:24:46;112139.09;;;7.09;100.00
7309;BME280;3695;53.330;9.876;2023-02-11T07:27:13;112288.28;;;7.16;100.00
7309;BME280;3695;53.330;9.876;2023-02-11T07:29:40;112543.41;;;7.17;100.00
7309;BME280;3695;53.330;9.876;2023-02-11T07:32:09;112670.84;;;7.08;100.00
7309;BME280;3695;53.330;9.876;2023-02-11T07:34:35;112811.25;;;7.05;100.00
7309;BME280;3695;53.330;9.876;2023-02-11T07:37:02;113132.78;;;7.14;100.00
7309;BME280;3695;53.330;9.876;2023-02-11T07:39:28;113289.78;;;7.04;100.00
7309;BME280;3695;53.330;9.876;2023-02-11T07:41:55;113569.63;;;7.09;100.00
7309;BME280;3695;53.330;9.876;2023-02-11T07:44:22;114129.72;;;7.10;100.00
7309;BME280;3695;53.330;9.876;2023-02-11T07:46:48;114858.63;;;7.12;100.00
7309;BME280;3695;53.330;9.876;2023-02-11T07:49:16;115152.28;;;7.09;100.00
7309;BME280;3695;53.330;9.876;2023-02-11T07:51:42;115618.09;;;7.12;100.00
7309;BME280;3695;53.330;9.876;2023-02-11T07:54:10;115972.22;;;7.16;100.00
7309;BME280;3695;53.330;9.876;2023-02-11T07:56:36;116433.56;;;7.25;100.00
7309;BME280;3695;53.330;9.876;2023-02-11T07:59:03;116201.66;;;7.25;100.00
7309;BME280;3695;53.330;9.876;2023-02-11T08:01:29;116536.66;;;7.19;100.00
7309;BME280;3695;53.330;9.876;2023-02-11T08:03:57;116689.06;;;7.18;100.00
7309;BME280;3695;53.330;9.876;2023-02-11T08:06:27;117071.88;;;7.26;100.00
7309;BME280;3695;53.330;9.876;2023-02-11T08:08:54;117597.19;;;7.19;100.00
7309;BME280;3695;53.330;9.876;2023-02-11T08:11:22;118408.66;;;7.35;100.00
7309;BME280;3695;53.330;9.876;2023-02-11T08:13:49;118842.72;;;7.38;100.00
7309;BME280;3695;53.330;9.876;2023-02-11T08:16:18;119324.13;;;7.32;100.00
7309;BME280;3695;53.330;9.876;2023-02-11T08:18:44;119853.28;;;7.41;100.00
7309;BME280;3695;53.330;9.876;2023-02-11T08:21:11;120244.28;;;7.34;100.00
7309;BME280;3695;53.330;9.876;2023-02-11T08:23:40;121000.78;;;7.20;100.00
7309;BME280;3695;53.330;9.876;2023-02-11T08:26:08;121983.75;;;7.40;100.00
7309;BME280;3695;53.330;9.876;2023-02-11T08:28:37;122076.16;;;7.24;100.00
7309;BME280;3695;53.330;9.876;2023-02-11T08:31:04;122457.88;;;7.25;100.00
7309;BME280;3695;53.330;9.876;2023-02-11T08:33:32;122004.25;;;7.26;100.00
7309;BME280;3695;53.330;9.876;2023-02-11T08:35:58;121772.94;;;7.35;100.00
7309;BME280;3695;53.330;9.876;2023-02-11T08:38:25;122197.38;;;7.41;100.00
7309;BME280;3695;53.330;9.876;2023-02-11T08:40:53;122880.75;;;7.44;100.00
7309;BME280;3695;53.330;9.876;2023-02-11T08:43:19;123297.91;;;7.37;100.00
7309;BME280;3695;53.330;9.876;2023-02-11T08:45:45;123657.06;;;7.33;100.00
7309;BME280;3695;53.330;9.876;2023-02-11T08:48:12;124412.66;;;7.38;100.00
7309;BME280;3695;53.330;9.876;2023-02-11T08:50:38;124949.59;;;7.32;100.00
7309;BME280;3695;53.330;9.876;2023-02-11T08:53:05;124968.66;;;7.43;100.00
7309;BME280;3695;53.330;9.876;2023-02-11T08:55:31;125336.53;;;7.34;100.00
7309;BME280;3695;53.330;9.876;2023-02-11T08:57:59;126046.03;;;7.37;100.00
7309;BME280;3695;53.330;9.876;2023-02-11T09:00:26;126141.16;;;7.50;100.00
7309;BME280;3695;53.330;9.876;2023-02-11T09:02:52;124765.16;;;7.36;100.00
7309;BME280;3695;53.330;9.876;2023-02-11T09:05:19;125488.31;;;7.43;100.00
7309;BME280;3695;53.330;9.876;2023-02-11T09:07:46;126082.63;;;7.48;100.00
7309;BME280;3695;53.330;9.876;2023-02-11T09:10:13;126916.31;;;7.44;100.00
7309;BME280;3695;53.330;9.876;2023-02-11T09:12:39;127219.06;;;7.51;100.00
7309;BME280;3695;53.330;9.876;2023-02-11T09:15:08;128356.06;;;7.52;100.00
7309;BME280;3695;53.330;9.876;2023-02-11T09:17:34;128757.69;;;7.55;100.00
7309;BME280;3695;53.330;9.876;2023-02-11T09:20:01;129033.41;;;7.53;100.00
7309;BME280;3695;53.330;9.876;2023-02-11T09:22:27;129014.72;;;7.43;100.00
7309;BME280;3695;53.330;9.876;2023-02-11T09:24:54;129711.59;;;7.49;100.00
7309;BME280;3695;53.330;9.876;2023-02-11T09:27:20;130184.03;;;7.63;100.00
7309;BME280;3695;53.330;9.876;2023-02-11T09:29:47;130073.22;;;7.49;100.00
7309;BME280;3695;53.330;9.876;2023-02-11T09:32:14;130694.84;;;7.64;100.00
7309;BME280;3695;53.330;9.876;2023-02-11T09:34:41;130698.72;;;7.49;100.00
7309;BME280;3695;53.330;9.876;2023-02-11T09:37:07;131281.41;;;7.61;100.00
7309;BME280;3695;53.330;9.876;2023-02-11T09:39:34;130879.84;;;7.64;100.00
7309;BME280;3695;53.330;9.876;2023-02-11T09:42:24;130999.56;;;7.61;100.00
7309;BME280;3695;53.330;9.876;2023-02-11T09:44:56;131562.75;;;7.64;100.00
7309;BME280;3695;53.330;9.876;2023-02-11T09:47:28;131297.19;;;7.62;100.00
7309;BME280;3695;53.330;9.876;2023-02-11T09:49:59;131724.88;;;7.58;100.00
7309;BME280;3695;53.330;9.876;2023-02-11T09:52:35;131617.59;;;7.55;100.00
7309;BME280;3695;53.330;9.876;2023-02-11T09:55:14;132011.19;;;7.62;100.00
7309;BME280;3695;53.330;9.876;2023-02-11T09:57:42;132468.16;;;7.54;100.00
7309;BME280;3695;53.330;9.876;2023-02-11T10:00:20;133086.94;;;7.66;100.00
7309;BME280;3695;53.330;9.876;2023-02-11T10:03:02;134013.97;;;7.49;100.00
7309;BME280;3695;53.330;9.876;2023-02-11T10:05:43;134130.78;;;7.55;100.00
7309;BME280;3695;53.330;9.876;2023-02-11T10:08:20;134367.03;;;7.54;100.00
7309;BME280;3695;53.330;9.876;2023-02-11T10:10:51;134307.75;;;7.55;100.00
7309;BME280;3695;53.330;9.876;2023-02-11T10:13:31;134623.47;;;7.62;100.00
7309;BME280;3695;53.330;9.876;2023-02-11T10:16:07;134272.34;;;7.55;100.00
7309;BME280;3695;53.330;9.876;2023-02-11T10:21:33;134933.28;;;7.69;100.00
7309;BME280;3695;53.330;9.876;2023-02-11T10:24:04;134868.38;;;7.68;100.00
7309;BME280;3695;53.330;9.876;2023-02-11T10:26:35;134982.28;;;7.69;100.00
7309;BME280;3695;53.330;9.876;2023-02-11T10:29:12;135209.19;;;7.73;100.00
7309;BME280;3695;53.330;9.876;2023-02-11T10:31:41;134540.09;;;7.71;100.00
7309;BME280;3695;53.330;9.876;2023-02-11T10:34:12;134935.81;;;7.75;100.00
7309;BME280;3695;53.330;9.876;2023-02-11T10:36:41;134963.69;;;7.85;100.00
7309;BME280;3695;53.330;9.876;2023-02-11T10:39:13;134098.03;;;7.75;100.00
7309;BME280;3695;53.330;9.876;2023-02-11T10:41:43;134446.56;;;7.84;100.00
7309;BME280;3695;53.330;9.876;2023-02-11T10:44:20;134142.97;;;7.70;100.00
7309;BME280;3695;53.330;9.876;2023-02-11T10:46:48;134471.78;;;7.77;100.00
7309;BME280;3695;53.330;9.876;2023-02-11T10:49:33;134397.25;;;7.79;100.00
7309;BME280;3695;53.330;9.876;2023-02-11T10:52:17;134840.66;;;7.69;100.00
7309;BME280;3695;53.330;9.876;2023-02-11T10:54:56;134575.41;;;7.60;100.00
7309;BME280;3695;53.330;9.876;2023-02-11T10:57:26;134787.47;;;7.72;100.00
7309;BME280;3695;53.330;9.876;2023-02-11T10:59:56;134877.03;;;7.75;100.00
7309;BME280;3695;53.330;9.876;2023-02-11T11:02:27;134985.03;;;7.77;100.00
7309;BME280;3695;53.330;9.876;2023-02-11T11:04:58;134657.69;;;7.70;100.00
7309;BME280;3695;53.330;9.876;2023-02-11T11:07:27;135030.53;;;7.82;100.00
7309;BME280;3695;53.330;9.876;2023-02-11T11:09:56;134360.47;;;7.73;100.00
7309;BME280;3695;53.330;9.876;2023-02-11T11:12:31;135620.22;;;8.20;100.00
7309;BME280;3695;53.330;9.876;2023-02-11T11:15:00;134658.28;;;8.08;100.00
7309;BME280;3695;53.330;9.876;2023-02-11T11:17:27;134648.69;;;8.23;100.00
7309;BME280;3695;53.330;9.876;2023-02-11T11:20:13;134078.16;;;8.16;100.00
7309;BME280;3695;53.330;9.876;2023-02-11T11:22:40;133866.63;;;8.14;100.00
7309;BME280;3695;53.330;9.876;2023-02-11T11:25:20;133751.16;;;8.16;100.00
7309;BME280;3695;53.330;9.876;2023-02-11T11:27:47;133546.00;;;8.09;100.00
7309;BME280;3695;53.330;9.876;2023-02-11T11:30:15;133950.53;;;8.26;100.00
7309;BME280;3695;53.330;9.876;2023-02-11T11:32:42;133351.53;;;8.11;100.00
7309;BME280;3695;53.330;9.876;2023-02-11T11:35:20;133054.44;;;8.06;100.00
7309;BME280;3695;53.330;9.876;2023-02-11T11:37:52;132811.75;;;8.17;100.00
7309;BME280;3695;53.330;9.876;2023-02-11T11:40:22;132910.34;;;8.16;100.00
7309;BME280;3695;53.330;9.876;2023-02-11T11:43:03;132388.03;;;7.99;100.00
7309;BME280;3695;53.330;9.876;2023-02-11T11:45:30;132744.97;;;8.28;100.00
7309;BME280;3695;53.330;9.876;2023-02-11T11:47:59;132608.06;;;8.21;100.00
7309;BME280;3695;53.330;9.876;2023-02-11T11:50:33;132453.41;;;8.26;100.00
7309;BME280;3695;53.330;9.876;2023-02-11T11:53:04;131761.97;;;8.19;100.00
7309;BME280;3695;53.330;9.876;2023-02-11T11:55:38;132333.59;;;8.31;100.00
7309;BME280;3695;53.330;9.876;2023-02-11T11:58:12;132547.75;;;8.30;100.00
7309;BME280;3695;53.330;9.876;2023-02-11T12:00:48;132478.97;;;8.24;100.00
7309;BME280;3695;53.330;9.876;2023-02-11T12:06:38;132739.28;;;8.39;100.00
7309;BME280;3695;53.330;9.876;2023-02-11T12:09:14;132585.63;;;8.41;100.00
7309;BME280;3695;53.330;9.876;2023-02-11T12:12:01;132011.00;;;8.28;100.00
7309;BME280;3695;53.330;9.876;2023-02-11T12:14:35;132167.13;;;8.47;100.00
7309;BME280;3695;53.330;9.876;2023-02-11T12:17:10;132091.94;;;8.50;100.00
7309;BME280;3695;53.330;9.876;2023-02-11T12:19:51;132128.13;;;8.64;100.00
7309;BME280;3695;53.330;9.876;2023-02-11T12:22:29;131464.66;;;8.46;100.00
7309;BME280;3695;53.330;9.876;2023-02-11T12:25:19;131323.53;;;8.40;100.00
7309;BME280;3695;53.330;9.876;2023-02-11T12:27:55;131266.88;;;8.39;100.00
7309;BME280;3695;53.330;9.876;2023-02-11T12:30:42;131490.81;;;8.45;100.00
7309;BME280;3695;53.330;9.876;2023-02-11T12:33:19;131752.50;;;8.58;100.00
7309;BME280;3695;53.330;9.876;2023-02-11T12:35:55;131483.75;;;8.46;100.00
7309;BME280;3695;53.330;9.876;2023-02-11T12:38:47;131509.34;;;8.49;100.00
7309;BME280;3695;53.330;9.876;2023-02-11T12:41:30;131641.22;;;8.49;100.00
7309;BME280;3695;53.330;9.876;2023-02-11T12:44:38;131608.53;;;8.49;100.00
7309;BME280;3695;53.330;9.876;2023-02-11T12:47:19;131786.75;;;8.50;100.00
7309;BME280;3695;53.330;9.876;2023-02-11T12:50:04;132029.44;;;8.63;100.00
7309;BME280;3695;53.330;9.876;2023-02-11T12:52:47;132102.97;;;8.55;100.00
7309;BME280;3695;53.330;9.876;2023-02-11T12:55:20;132015.09;;;8.48;100.00
7309;BME280;3695;53.330;9.876;2023-02-11T12:57:49;132054.84;;;8.45;100.00
7309;BME280;3695;53.330;9.876;2023-02-11T13:00:18;132325.88;;;8.54;100.00
7309;BME280;3695;53.330;9.876;2023-02-11T13:02:51;132231.47;;;8.49;100.00
7309;BME280;3695;53.330;9.876;2023-02-11T13:05:26;132200.28;;;8.41;100.00
7309;BME280;3695;53.330;9.876;2023-02-11T13:07:58;132351.47;;;8.51;100.00
7309;BME280;3695;53.330;9.876;2023-02-11T13:10:32;132412.53;;;8.52;100.00
7309;BME280;3695;53.330;9.876;2023-02-11T13:13:01;132235.38;;;8.52;100.00
7309;BME280;3695;53.330;9.876;2023-02-11T13:15:46;132446.50;;;8.63;100.00
7309;BME280;3695;53.330;9.876;2023-02-11T13:18:23;132486.88;;;8.64;100.00
7309;BME280;3695;53.330;9.876;2023-02-11T13:21:14;132471.63;;;8.64;100.00
7309;BME280;3695;53.330;9.876;2023-02-11T13:23:46;132356.50;;;8.60;100.00
7309;BME280;3695;53.330;9.876;2023-02-11T13:26:20;132370.47;;;8.49;100.00
7309;BME280;3695;53.330;9.876;2023-02-11T13:28:55;132723.72;;;8.75;100.00
7309;BME280;3695;53.330;9.876;2023-02-11T13:31:22;132506.53;;;8.65;100.00
7309;BME280;3695;53.330;9.876;2023-02-11T13:33:51;132645.13;;;8.71;100.00
7309;BME280;3695;53.330;9.876;2023-02-11T13:36:20;132222.78;;;8.50;100.00